2J3

Louisville Municipal Airport

Louisville, Georgia, USA
METAR K2J3 260335Z AUTO 27004KT 10SM CLR 15/12 A2989 RMK AO2 T01480123
Observed Flight Rules
Apr-26 @ 03:35 UTC (9 minutes ago) Visual Flight Rules
Wind Visibility Clouds
270° at 4 knots 10 miles
  • Clear skies
Temperatures Readings
Current 15°C / 59°F
Dewpoint 12°C / 54°F
Humidity 82%
Altimeter 29.89" Hg
Pressure 1012 hPa
Elevation 100
METAR K2J3 260335Z AUTO 27004KT 10SM CLR 15/12 A2989 RMK AO2 T01480123
Observed Flight Rules
Apr-26 @ 03:35 UTC
(9 minutes ago)
VFR
Wind Visibility
270° at 4 knots 10 miles
Clouds
  • Clear skies
Temperature Dewpoint
15°C / 59°F 12°C / 54°F
Humidity Altimeter Pressure
82% 29.89" Hg 1012 hPa